createdAt,value
2024-01-04T00:02:26.944Z,8.49
2024-01-04T00:04:53.496Z,8.54
2024-01-04T00:07:20.340Z,8.54
2024-01-04T00:09:48.065Z,8.56
2024-01-04T00:12:14.664Z,8.57
2024-01-04T00:14:41.514Z,8.64
2024-01-04T00:17:08.111Z,8.65
2024-01-04T00:19:34.723Z,8.61
2024-01-04T00:22:01.301Z,8.64
2024-01-04T00:24:27.877Z,8.61
2024-01-04T00:26:54.501Z,8.59
2024-01-04T00:29:21.065Z,8.56
2024-01-04T00:31:47.928Z,8.56
2024-01-04T00:34:14.729Z,8.50
2024-01-04T00:36:41.324Z,8.49
2024-01-04T00:39:08.072Z,8.49
2024-01-04T00:41:34.719Z,8.43
2024-01-04T00:44:01.229Z,8.37
2024-01-04T00:46:27.762Z,8.37
2024-01-04T00:48:54.986Z,8.30
2024-01-04T00:51:21.680Z,8.37
2024-01-04T00:53:48.270Z,8.34
2024-01-04T00:56:14.916Z,8.29
2024-01-04T00:58:41.532Z,8.26
2024-01-04T01:01:08.121Z,8.29
2024-01-04T01:03:34.748Z,8.23
2024-01-04T01:06:01.451Z,8.21
2024-01-04T01:08:28.106Z,8.23
2024-01-04T01:10:54.624Z,8.15
2024-01-04T01:13:21.922Z,8.12
2024-01-04T01:15:48.628Z,8.09
2024-01-04T01:18:15.366Z,8.05
2024-01-04T01:20:42.101Z,8.09
2024-01-04T01:23:08.857Z,8.05
2024-01-04T01:25:35.415Z,8.05
2024-01-04T01:28:01.939Z,8.09
2024-01-04T01:30:30.485Z,8.05
2024-01-04T01:32:57.960Z,8.07
2024-01-04T01:35:24.669Z,8.12
2024-01-04T01:37:51.228Z,8.12
2024-01-04T01:40:17.788Z,8.12
2024-01-04T01:42:50.272Z,8.16
2024-01-04T01:45:17.861Z,8.17
2024-01-04T01:47:49.259Z,8.21
2024-01-04T01:50:18.862Z,8.22
2024-01-04T01:52:45.741Z,8.21
2024-01-04T01:55:14.294Z,8.21
2024-01-04T01:57:40.939Z,8.26
2024-01-04T02:00:08.410Z,8.28
2024-01-04T02:02:35.207Z,8.19
2024-01-04T02:05:02.571Z,8.12
2024-01-04T02:07:29.712Z,8.15
2024-01-04T02:09:56.288Z,8.10
2024-01-04T02:12:22.853Z,8.06
2024-01-04T02:14:55.605Z,8.03
2024-01-04T02:17:23.699Z,8.05
2024-01-04T02:19:50.341Z,8.03
2024-01-04T02:22:18.563Z,8.05
2024-01-04T02:24:45.903Z,8.03
2024-01-04T02:27:13.991Z,8.05
2024-01-04T02:29:40.911Z,8.06
2024-01-04T02:32:07.667Z,8.05
2024-01-04T02:34:34.293Z,8.02
2024-01-04T02:37:00.852Z,7.95
2024-01-04T02:39:27.412Z,7.79
2024-01-04T02:41:53.926Z,7.81
2024-01-04T02:44:20.540Z,7.78
2024-01-04T02:46:47.452Z,7.71
2024-01-04T02:49:14.190Z,7.65
2024-01-04T02:51:40.843Z,7.61
2024-01-04T02:54:08.039Z,7.63
2024-01-04T02:56:34.895Z,7.51
2024-01-04T02:59:02.448Z,7.47
2024-01-04T03:01:29.013Z,7.44
2024-01-04T03:03:58.585Z,7.51
2024-01-04T03:06:26.733Z,7.51
2024-01-04T03:08:53.516Z,7.47
2024-01-04T03:11:20.591Z,7.44
2024-01-04T03:13:50.913Z,7.44
2024-01-04T03:16:20.517Z,7.44
2024-01-04T03:18:47.439Z,7.41
2024-01-04T03:21:14.711Z,7.38
2024-01-04T03:23:41.432Z,7.43
2024-01-04T03:26:08.029Z,7.41
2024-01-04T03:28:34.873Z,7.37
2024-01-04T03:31:01.521Z,7.43
2024-01-04T03:33:28.271Z,7.43
2024-01-04T03:35:55.139Z,7.44
2024-01-04T03:38:21.814Z,7.41
2024-01-04T03:40:48.502Z,7.43
2024-01-04T03:43:15.056Z,7.44
2024-01-04T03:45:42.112Z,7.38
2024-01-04T03:48:08.903Z,7.46
2024-01-04T03:50:35.691Z,7.40
2024-01-04T03:53:02.250Z,7.34
2024-01-04T03:55:28.806Z,7.30
2024-01-04T03:57:55.762Z,7.31
2024-01-04T04:00:22.418Z,7.31
2024-01-04T04:02:49.121Z,7.33
2024-01-04T04:05:15.860Z,7.33
2024-01-04T04:07:42.446Z,7.31
2024-01-04T04:10:09.915Z,7.30
2024-01-04T04:12:36.676Z,7.30
2024-01-04T04:15:06.807Z,7.33
2024-01-04T04:17:34.814Z,7.28
2024-01-04T04:20:01.656Z,7.27
2024-01-04T04:22:28.200Z,7.28
2024-01-04T04:24:54.706Z,7.33
2024-01-04T04:27:21.328Z,7.31
2024-01-04T04:29:47.984Z,7.37
2024-01-04T04:32:14.676Z,7.40
2024-01-04T04:34:41.247Z,7.35
2024-01-04T04:37:07.938Z,7.40
2024-01-04T04:39:34.512Z,7.48
2024-01-04T04:42:01.098Z,7.46
2024-01-04T04:44:27.675Z,7.43
2024-01-04T04:46:54.621Z,7.43
2024-01-04T04:49:21.651Z,7.46
2024-01-04T04:51:50.358Z,7.46
2024-01-04T04:54:17.813Z,7.44
2024-01-04T04:56:44.936Z,7.46
2024-01-04T04:59:13.719Z,7.41
2024-01-04T05:01:45.330Z,7.44
2024-01-04T05:04:12.252Z,7.47
2024-01-04T05:06:39.141Z,7.50
2024-01-04T05:09:06.436Z,7.50
2024-01-04T05:11:33.076Z,7.54
2024-01-04T05:13:59.782Z,7.54
2024-01-04T05:16:26.422Z,7.55
2024-01-04T05:18:53.185Z,7.54
2024-01-04T05:21:20.613Z,7.54
2024-01-04T05:23:47.268Z,7.50
2024-01-04T05:26:23.253Z,7.53
2024-01-04T05:28:49.935Z,7.54
2024-01-04T05:31:19.640Z,7.58
2024-01-04T05:33:47.828Z,7.58
2024-01-04T05:36:14.809Z,7.57
2024-01-04T05:38:41.553Z,7.58
2024-01-04T05:41:08.181Z,7.51
2024-01-04T05:43:35.043Z,7.41
2024-01-04T05:46:07.946Z,7.38
2024-01-04T05:48:35.634Z,7.35
2024-01-04T05:51:02.602Z,7.35
2024-01-04T05:53:29.247Z,7.34
2024-01-04T05:55:55.811Z,7.31
2024-01-04T05:58:22.401Z,7.34
2024-01-04T06:00:49.109Z,7.34
2024-01-04T06:03:16.067Z,7.37
2024-01-04T06:05:42.971Z,7.37
2024-01-04T06:08:09.622Z,7.30
2024-01-04T06:10:36.378Z,7.34
2024-01-04T06:13:03.295Z,7.26
2024-01-04T06:15:30.324Z,7.20
2024-01-04T06:17:57.168Z,7.23
2024-01-04T06:20:23.969Z,7.17
2024-01-04T06:22:52.387Z,7.13
2024-01-04T06:25:20.206Z,7.09
2024-01-04T06:27:47.705Z,7.14
2024-01-04T06:30:14.855Z,7.06
2024-01-04T06:32:41.651Z,6.99
2024-01-04T06:35:08.908Z,6.99
2024-01-04T06:37:35.463Z,7.00
2024-01-04T06:40:02.122Z,6.95
2024-01-04T06:42:28.824Z,6.92
2024-01-04T06:44:55.534Z,6.83
2024-01-04T06:47:22.119Z,6.83
2024-01-04T06:49:48.837Z,6.64
2024-01-04T06:52:15.607Z,6.59
2024-01-04T06:54:42.204Z,6.52
2024-01-04T06:57:09.062Z,6.46
2024-01-04T06:59:36.055Z,6.34
2024-01-04T07:02:05.840Z,6.18
2024-01-04T07:04:32.997Z,6.07
2024-01-04T07:06:59.810Z,5.93
2024-01-04T07:09:26.409Z,5.90
2024-01-04T07:11:53.386Z,5.80
2024-01-04T07:14:19.977Z,5.72
2024-01-04T07:16:47.565Z,5.66
2024-01-04T07:19:14.643Z,5.59
2024-01-04T07:21:42.900Z,5.60
2024-01-04T07:24:09.678Z,5.56
2024-01-04T07:26:36.683Z,5.48
2024-01-04T07:29:03.429Z,5.48
2024-01-04T07:31:30.675Z,5.38
2024-01-04T07:33:57.394Z,5.32
2024-01-04T07:36:24.566Z,5.35
2024-01-04T07:38:51.152Z,5.25
2024-01-04T07:41:17.693Z,5.30
2024-01-04T07:43:44.321Z,5.21
2024-01-04T07:46:10.897Z,5.27
2024-01-04T07:48:37.645Z,5.21
2024-01-04T07:51:04.628Z,5.28
2024-01-04T07:53:31.457Z,5.22
2024-01-04T07:55:58.381Z,5.25
2024-01-04T07:58:24.957Z,5.24
2024-01-04T08:00:51.607Z,5.27
2024-01-04T08:03:18.331Z,5.27
2024-01-04T08:05:45.018Z,5.30
2024-01-04T08:08:11.594Z,5.27
2024-01-04T08:10:38.165Z,5.21
2024-01-04T08:13:05.042Z,5.21
2024-01-04T08:15:34.557Z,5.20
2024-01-04T08:18:07.417Z,5.10
2024-01-04T08:20:34.758Z,5.01
2024-01-04T08:23:01.494Z,4.94
2024-01-04T08:25:30.862Z,4.87
2024-01-04T08:27:57.414Z,4.94
2024-01-04T08:30:24.607Z,4.85
2024-01-04T08:32:51.346Z,4.71
2024-01-04T08:35:18.574Z,4.76
2024-01-04T08:37:48.986Z,4.57
2024-01-04T08:40:15.580Z,4.56
2024-01-04T08:42:42.242Z,4.42
2024-01-04T08:45:10.613Z,4.31
2024-01-04T08:47:37.517Z,4.29
2024-01-04T08:50:04.942Z,4.26
2024-01-04T08:52:32.125Z,4.22
2024-01-04T08:54:59.176Z,4.18
2024-01-04T08:57:26.135Z,4.06
2024-01-04T08:59:53.595Z,4.01
2024-01-04T09:02:21.887Z,4.05
2024-01-04T09:04:48.622Z,4.02
2024-01-04T09:07:15.674Z,3.98
2024-01-04T09:09:42.244Z,3.98
2024-01-04T09:12:09.068Z,3.99
2024-01-04T09:14:35.609Z,3.94
2024-01-04T09:17:02.200Z,3.91
2024-01-04T09:19:29.694Z,3.81
2024-01-04T09:21:56.449Z,3.87
2024-01-04T09:24:24.827Z,3.85
2024-01-04T09:26:51.637Z,3.78
2024-01-04T09:29:18.774Z,3.77
2024-01-04T09:31:45.492Z,3.82
2024-01-04T09:34:12.227Z,3.94
2024-01-04T09:36:38.892Z,3.90
2024-01-04T09:39:05.549Z,3.81
2024-01-04T09:41:33.728Z,3.85
2024-01-04T09:44:02.571Z,3.92
2024-01-04T09:46:34.740Z,3.91
2024-01-04T09:49:02.471Z,3.87
2024-01-04T09:51:31.639Z,3.95
2024-01-04T09:53:58.341Z,3.98
2024-01-04T09:56:26.527Z,4.02
2024-01-04T09:58:54.135Z,3.82
2024-01-04T10:01:24.623Z,3.85
2024-01-04T10:03:54.062Z,3.82
2024-01-04T10:06:31.054Z,3.85
2024-01-04T10:09:05.407Z,3.85
2024-01-04T10:11:45.024Z,3.70
2024-01-04T10:14:11.657Z,3.81
2024-01-04T10:16:38.901Z,3.81
2024-01-04T10:19:05.601Z,3.81
2024-01-04T10:21:35.141Z,3.94
2024-01-04T10:24:03.499Z,3.92
2024-01-04T10:26:30.189Z,3.82
2024-01-04T10:28:57.795Z,3.71
2024-01-04T10:31:24.389Z,3.67
2024-01-04T10:34:01.919Z,3.70
2024-01-04T10:36:34.049Z,3.64
2024-01-04T10:39:04.415Z,3.66
2024-01-04T10:41:31.034Z,3.81
2024-01-04T10:44:07.991Z,3.64
2024-01-04T10:46:35.549Z,3.64
2024-01-04T10:49:05.746Z,3.70
2024-01-04T10:51:33.554Z,3.82
2024-01-04T10:54:03.694Z,3.77
2024-01-04T10:56:31.625Z,3.80
2024-01-04T10:58:59.541Z,3.63
2024-01-04T11:01:26.783Z,3.67
2024-01-04T11:03:56.229Z,3.61
2024-01-04T11:06:35.647Z,3.63
2024-01-04T11:09:02.544Z,3.37
2024-01-04T11:11:29.316Z,3.37
2024-01-04T11:13:55.930Z,3.41
2024-01-04T11:16:40.674Z,3.32
2024-01-04T11:20:00.585Z,3.37
2024-01-04T11:23:12.245Z,3.39
2024-01-04T11:26:16.130Z,3.37
2024-01-04T11:28:43.826Z,3.39
2024-01-04T11:31:11.932Z,3.44
2024-01-04T11:33:42.271Z,3.39
2024-01-04T11:36:10.455Z,3.39
2024-01-04T11:38:37.553Z,3.32
2024-01-04T11:41:04.716Z,3.26
2024-01-04T11:43:45.235Z,3.15
2024-01-04T11:46:25.381Z,3.12
2024-01-04T11:49:07.667Z,3.16
2024-01-04T11:51:40.519Z,3.23
2024-01-04T11:54:11.019Z,3.13
2024-01-04T11:56:40.789Z,3.03
2024-01-04T11:59:16.206Z,3.02
2024-01-04T12:01:44.679Z,3.02
2024-01-04T12:04:15.883Z,3.13
2024-01-04T12:06:45.337Z,3.19
2024-01-04T12:09:21.750Z,3.16
2024-01-04T12:11:56.316Z,3.15
2024-01-04T12:14:24.132Z,3.10
2024-01-04T12:16:50.859Z,3.10
2024-01-04T12:19:17.764Z,3.19
2024-01-04T12:21:46.892Z,3.27
2024-01-04T12:24:13.870Z,3.15
2024-01-04T12:26:40.747Z,3.20
2024-01-04T12:29:09.220Z,3.06
2024-01-04T12:31:36.727Z,3.10
2024-01-04T12:34:03.593Z,3.12
2024-01-04T12:36:31.869Z,3.05
2024-01-04T12:39:08.759Z,3.09
2024-01-04T12:41:38.419Z,3.03
2024-01-04T12:44:10.970Z,3.09
2024-01-04T12:46:38.348Z,2.87
2024-01-04T12:49:14.950Z,2.99
2024-01-04T12:51:44.209Z,3.01
2024-01-04T12:54:12.395Z,3.02
2024-01-04T12:56:39.559Z,3.03
2024-01-04T12:59:06.298Z,2.85
2024-01-04T13:01:33.685Z,2.93
2024-01-04T13:04:00.877Z,2.99
2024-01-04T13:06:29.090Z,3.01
2024-01-04T13:08:56.502Z,3.05
2024-01-04T13:11:23.525Z,2.96
2024-01-04T13:13:51.428Z,2.99
2024-01-04T13:16:18.961Z,3.06
2024-01-04T13:18:45.851Z,3.06
2024-01-04T13:21:12.685Z,3.08
2024-01-04T13:23:39.312Z,2.98
2024-01-04T13:26:05.955Z,3.05
2024-01-04T13:28:32.556Z,2.92
2024-01-04T13:30:59.310Z,3.02
2024-01-04T13:33:28.128Z,3.01
2024-01-04T13:35:56.607Z,2.95
2024-01-04T13:38:24.294Z,2.95
2024-01-04T13:40:51.048Z,2.89
2024-01-04T13:43:17.664Z,2.93
2024-01-04T13:45:44.315Z,2.88
2024-01-04T13:48:11.095Z,2.84
2024-01-04T13:50:37.777Z,2.84
2024-01-04T13:53:07.454Z,2.77
2024-01-04T13:55:34.112Z,2.70
2024-01-04T13:58:00.751Z,2.66
2024-01-04T14:00:27.381Z,2.62
2024-01-04T14:02:54.216Z,2.55
2024-01-04T14:05:20.860Z,2.55
2024-01-04T14:07:47.484Z,2.48
2024-01-04T14:10:14.079Z,2.42
2024-01-04T14:12:41.945Z,2.38
2024-01-04T14:15:09.627Z,2.36
2024-01-04T14:17:40.153Z,2.36
2024-01-04T14:20:10.348Z,2.33
2024-01-04T14:22:37.209Z,2.31
2024-01-04T14:25:04.012Z,2.26
2024-01-04T14:27:30.651Z,2.24
2024-01-04T14:29:57.265Z,2.27
2024-01-04T14:32:28.815Z,2.26
2024-01-04T14:34:55.644Z,2.23
2024-01-04T14:37:23.231Z,2.20
2024-01-04T14:39:51.500Z,2.16
2024-01-04T14:42:18.129Z,2.16
2024-01-04T14:44:44.821Z,2.14
2024-01-04T14:47:11.515Z,2.14
2024-01-04T14:49:43.233Z,2.07
2024-01-04T14:52:12.600Z,2.07
2024-01-04T14:54:43.535Z,1.99
2024-01-04T14:57:10.474Z,2.00
2024-01-04T14:59:37.113Z,1.89
2024-01-04T15:02:05.279Z,1.85
2024-01-04T15:04:32.066Z,1.78
2024-01-04T15:07:02.488Z,1.78
2024-01-04T15:09:29.967Z,1.76
2024-01-04T15:11:57.965Z,1.70
2024-01-04T15:14:24.985Z,1.70
2024-01-04T15:16:51.540Z,1.69
2024-01-04T15:19:18.239Z,1.70
2024-01-04T15:21:44.918Z,1.65
2024-01-04T15:24:11.522Z,1.63
2024-01-04T15:26:38.036Z,1.59
2024-01-04T15:29:04.562Z,1.55
2024-01-04T15:31:31.071Z,1.55
2024-01-04T15:33:57.783Z,1.54
2024-01-04T15:36:24.822Z,1.52
2024-01-04T15:38:51.722Z,1.51
2024-01-04T15:41:19.780Z,1.44
2024-01-04T15:43:47.527Z,1.41
2024-01-04T15:46:14.068Z,1.37
2024-01-04T15:48:40.806Z,1.30
2024-01-04T15:51:07.928Z,1.24
2024-01-04T15:53:34.489Z,1.20
2024-01-04T15:56:01.203Z,1.07
2024-01-04T15:58:27.775Z,1.03
2024-01-04T16:00:54.461Z,1.00
2024-01-04T16:03:21.139Z,1.01
2024-01-04T16:05:47.778Z,1.11
2024-01-04T16:08:14.345Z,1.13
2024-01-04T16:10:40.876Z,1.10
2024-01-04T16:13:08.176Z,1.10
2024-01-04T16:15:35.617Z,1.08
2024-01-04T16:18:02.875Z,1.04
2024-01-04T16:20:34.108Z,1.05
2024-01-04T16:23:04.969Z,1.04
2024-01-04T16:25:32.830Z,1.04
2024-01-04T16:28:00.006Z,1.03
2024-01-04T16:30:26.668Z,1.01
2024-01-04T16:32:53.571Z,0.97
2024-01-04T16:35:20.479Z,0.91
2024-01-04T16:37:47.093Z,0.86
2024-01-04T16:40:14.190Z,0.80
2024-01-04T16:42:41.545Z,0.77
2024-01-04T16:45:09.731Z,0.68
2024-01-04T16:47:36.341Z,0.60
2024-01-04T16:50:03.709Z,0.52
2024-01-04T16:52:30.463Z,0.49
2024-01-04T16:54:57.022Z,0.42
2024-01-04T16:57:23.653Z,0.41
2024-01-04T16:59:50.262Z,0.39
2024-01-04T17:02:17.355Z,0.39
2024-01-04T17:04:43.998Z,0.32
2024-01-04T17:07:10.630Z,0.26
2024-01-04T17:09:37.464Z,0.25
2024-01-04T17:12:06.171Z,0.19
2024-01-04T17:14:32.861Z,0.11
2024-01-04T17:16:59.485Z,0.11
2024-01-04T17:19:26.055Z,0.07
2024-01-04T17:21:52.713Z,0.07
2024-01-04T17:24:19.521Z,0.04
2024-01-04T17:26:46.164Z,0.04
2024-01-04T17:29:12.796Z,-0.02
2024-01-04T17:31:39.544Z,-0.09
2024-01-04T17:34:06.685Z,-0.12
2024-01-04T17:36:41.860Z,-0.13
2024-01-04T17:39:10.930Z,-0.10
2024-01-04T17:41:37.654Z,-0.10
2024-01-04T17:44:04.959Z,-0.10
2024-01-04T17:46:31.548Z,-0.09
2024-01-04T17:48:59.435Z,-0.12
2024-01-04T17:51:26.253Z,-0.12
2024-01-04T17:53:53.015Z,-0.12
2024-01-04T17:56:19.564Z,-0.20
2024-01-04T17:58:46.168Z,-0.16
2024-01-04T18:01:14.400Z,-0.16
2024-01-04T18:03:41.546Z,-0.13
2024-01-04T18:06:08.198Z,-0.10
2024-01-04T18:08:34.795Z,-0.03
2024-01-04T18:11:01.457Z,-0.03
2024-01-04T18:13:29.588Z,-0.03
2024-01-04T18:15:56.186Z,0.04
2024-01-04T18:18:22.867Z,0.07
2024-01-04T18:20:49.729Z,0.12
2024-01-04T18:23:16.522Z,0.15
2024-01-04T18:25:43.094Z,0.15
2024-01-04T18:28:10.017Z,0.19
2024-01-04T18:30:38.048Z,0.19
2024-01-04T18:33:05.245Z,0.19
2024-01-04T18:35:32.143Z,0.21
2024-01-04T18:37:59.068Z,0.22
2024-01-04T18:40:28.811Z,0.19
2024-01-04T18:42:55.370Z,0.21
2024-01-04T18:45:21.934Z,0.25
2024-01-04T18:47:48.773Z,0.28
2024-01-04T18:50:16.213Z,0.28
2024-01-04T18:52:43.423Z,0.33
2024-01-04T18:55:09.967Z,0.35
2024-01-04T18:57:36.623Z,0.35
2024-01-04T19:00:03.966Z,0.38
2024-01-04T19:02:30.623Z,0.41
2024-01-04T19:04:57.248Z,0.41
2024-01-04T19:07:24.091Z,0.42
2024-01-04T19:09:50.618Z,0.39
2024-01-04T19:12:17.442Z,0.41
2024-01-04T19:14:44.013Z,0.39
2024-01-04T19:17:10.643Z,0.45
2024-01-04T19:19:37.474Z,0.45
2024-01-04T19:22:04.863Z,0.46
2024-01-04T19:24:31.452Z,0.50
2024-01-04T19:26:58.078Z,0.52
2024-01-04T19:29:26.551Z,0.53
2024-01-04T19:31:53.199Z,0.52
2024-01-04T19:34:19.823Z,0.56
2024-01-04T19:36:47.603Z,0.58
2024-01-04T19:39:16.004Z,0.55
2024-01-04T19:41:43.747Z,0.55
2024-01-04T19:44:10.508Z,0.53
2024-01-04T19:46:38.256Z,0.55
2024-01-04T19:49:05.206Z,0.55
2024-01-04T19:51:31.986Z,0.55
2024-01-04T19:53:58.585Z,0.58
2024-01-04T19:56:25.413Z,0.59
2024-01-04T19:58:53.165Z,0.58
2024-01-04T20:01:20.198Z,0.56
2024-01-04T20:03:48.253Z,0.60
2024-01-04T20:06:14.936Z,0.62
2024-01-04T20:08:41.534Z,0.59
2024-01-04T20:11:10.115Z,0.58
2024-01-04T20:13:37.540Z,0.56
2024-01-04T20:16:04.386Z,0.55
2024-01-04T20:18:31.040Z,0.56
2024-01-04T20:20:58.006Z,0.55
2024-01-04T20:23:24.721Z,0.55
2024-01-04T20:25:51.276Z,0.56
2024-01-04T20:28:17.899Z,0.56
2024-01-04T20:30:44.668Z,0.58
2024-01-04T20:33:11.397Z,0.56
2024-01-04T20:35:37.984Z,0.52
2024-01-04T20:38:05.362Z,0.53
2024-01-04T20:40:32.000Z,0.53
2024-01-04T20:42:59.421Z,0.53
2024-01-04T20:45:26.724Z,0.52
2024-01-04T20:47:55.432Z,0.49
2024-01-04T20:50:22.311Z,0.49
2024-01-04T20:52:48.939Z,0.49
2024-01-04T20:55:15.482Z,0.48
2024-01-04T20:57:42.043Z,0.50
2024-01-04T21:00:09.263Z,0.50
2024-01-04T21:02:36.038Z,0.52
2024-01-04T21:05:02.597Z,0.52
2024-01-04T21:07:29.368Z,0.52
2024-01-04T21:09:56.003Z,0.56
2024-01-04T21:12:22.849Z,0.55
2024-01-04T21:14:49.514Z,0.56
2024-01-04T21:17:16.106Z,0.58
2024-01-04T21:19:42.769Z,0.50
2024-01-04T21:22:09.461Z,0.44
2024-01-04T21:24:36.464Z,0.42
2024-01-04T21:27:03.252Z,0.48
2024-01-04T21:29:29.910Z,0.49
2024-01-04T21:31:56.407Z,0.46
2024-01-04T21:34:23.468Z,0.46
2024-01-04T21:36:50.405Z,0.53
2024-01-04T21:39:21.457Z,0.52
2024-01-04T21:41:49.698Z,0.56
2024-01-04T21:44:16.434Z,0.58
2024-01-04T21:46:43.819Z,0.56
2024-01-04T21:49:10.902Z,0.59
2024-01-04T21:51:37.889Z,0.59
2024-01-04T21:54:04.591Z,0.58
2024-01-04T21:56:31.403Z,0.59
2024-01-04T21:58:58.140Z,0.60
2024-01-04T22:01:30.099Z,0.62
2024-01-04T22:03:57.093Z,0.59
2024-01-04T22:06:27.267Z,0.59
2024-01-04T22:08:54.097Z,0.59
2024-01-04T22:11:21.030Z,0.60
2024-01-04T22:13:49.059Z,0.63
2024-01-04T22:16:15.909Z,0.62
2024-01-04T22:18:42.713Z,0.62
2024-01-04T22:21:09.459Z,0.60
2024-01-04T22:23:36.793Z,0.62
2024-01-04T22:26:03.736Z,0.65
2024-01-04T22:28:30.651Z,0.62
2024-01-04T22:30:57.314Z,0.63
2024-01-04T22:33:24.054Z,0.62
2024-01-04T22:35:52.440Z,0.63
2024-01-04T22:38:19.144Z,0.63
2024-01-04T22:40:45.732Z,0.62
2024-01-04T22:43:12.749Z,0.60
2024-01-04T22:45:39.455Z,0.60
2024-01-04T22:48:06.852Z,0.59
2024-01-04T22:50:33.579Z,0.62
2024-01-04T22:53:00.545Z,0.63
2024-01-04T22:55:27.200Z,0.68
2024-01-04T22:57:54.340Z,0.68
2024-01-04T23:00:21.957Z,0.68
2024-01-04T23:02:48.609Z,0.68
2024-01-04T23:05:15.271Z,0.72
2024-01-04T23:07:42.274Z,0.70
2024-01-04T23:10:09.459Z,0.73
2024-01-04T23:12:36.088Z,0.70
2024-01-04T23:15:03.106Z,0.69
2024-01-04T23:17:29.783Z,0.70
2024-01-04T23:19:56.527Z,0.70
2024-01-04T23:22:24.341Z,0.72
2024-01-04T23:24:51.040Z,0.72
2024-01-04T23:27:17.875Z,0.70
2024-01-04T23:29:44.692Z,0.72
2024-01-04T23:32:11.349Z,0.70
2024-01-04T23:34:38.131Z,0.69
2024-01-04T23:37:06.899Z,0.66
2024-01-04T23:39:33.892Z,0.66
2024-01-04T23:42:00.747Z,0.66
2024-01-04T23:44:27.772Z,0.66
2024-01-04T23:46:54.325Z,0.66
2024-01-04T23:49:21.154Z,0.65
2024-01-04T23:51:47.882Z,0.63
2024-01-04T23:54:14.447Z,0.56
2024-01-04T23:56:41.382Z,0.56
2024-01-04T23:59:08.042Z,0.48
